Time;durP1;ratioP1;P1;durP2;ratioP2;P2;SDS_P1;SDS_P2;PMS_P1;PMS_P2;Temp;Humidity;BMP_temperature;BMP_pressure;BME280_temperature;BME280_humidity;BME280_pressure;Samples;Min_cycle;Max_cycle;Signal;HPM_P1;HPM_P2
2021/11/07 00:04:50;;;;;;;;;;;;;;;;;;5089410;28;19908;-77
2021/11/07 00:07:23;;;;;;;;;;;;;;;;;;5089881;28;19912;-76
2021/11/07 00:10:08;;;;;;;;;;;;;;;;;;5089449;28;20089;-76
2021/11/07 00:12:40;;;;;;;;;;;;;;;;;;5089917;28;19974;-76
2021/11/07 00:15:06;;;;;;;;;;;;;;;;;;5070493;28;19923;-77
2021/11/07 00:17:34;;;;;;;;;;;;;;;;;;5089248;28;19916;-77
2021/11/07 00:20:16;;;;;;;;;;;;;;;;;;5071336;28;19927;-76
2021/11/07 00:25:41;;;;;;;;;;;;;;;;;;5089114;28;19916;-77
2021/11/07 00:28:14;;;;;;;;;;;;;;;;;;5071244;28;19904;-76
2021/11/07 00:33:28;;;;;;;;;;;;;;;;;;5090030;28;19964;-76
2021/11/07 00:36:32;;;;;;;;;;;;;;;;;;5070747;28;20250;-76
2021/11/07 00:41:24;;;;;;;;;;;;;;;;;;5089698;28;19918;-75
2021/11/07 00:46:36;;;;;;;;;;;;;;;;;;5089949;28;20033;-75
2021/11/07 00:49:07;;;;;;;;;;;;;;;;;;5088595;28;20347;-76
2021/11/07 00:51:55;;;;;;;;;;;;;;;;;;5088121;28;19919;-76
2021/11/07 00:54:26;;;;;;;;;;;;;;;;;;5088706;28;20220;-76
2021/11/07 00:56:58;;;;;;;;;;;;;;;;;;5089350;28;19920;-78
2021/11/07 00:59:47;;;;;;;;;;;;;;;;;;5089142;28;20368;-76
2021/11/07 01:02:12;;;;;;;;;;;;;;;;;;5089367;28;19908;-77
2021/11/07 01:04:41;;;;;;;;;;;;;;;;;;5088690;28;20314;-77
2021/11/07 01:07:07;;;;;;;;;;;;;;;;;;5070186;28;19908;-79
2021/11/07 01:09:33;;;;;;;;;;;;;;;;;;5079549;28;19981;-78
2021/11/07 01:12:00;;;;;;;;;;;;;;;;;;5070748;28;19908;-78
2021/11/07 01:14:26;;;;;;;;;;;;;;;;;;5070286;28;19914;-77
2021/11/07 01:16:52;;;;;;;;;;;;;;;;;;5088238;28;20555;-78
2021/11/07 01:19:18;;;;;;;;;;;;;;;;;;5089060;28;19923;-78
2021/11/07 01:21:45;;;;;;;;;;;;;;;;;;5086865;28;19911;-80
2021/11/07 01:24:22;;;;;;;;;;;;;;;;;;5070369;28;19931;-82
2021/11/07 01:26:52;;;;;;;;;;;;;;;;;;5068835;28;20348;-82
2021/11/07 01:29:26;;;;;;;;;;;;;;;;;;5070720;28;19957;-84
2021/11/07 01:31:52;;;;;;;;;;;;;;;;;;5070087;28;19957;-79
2021/11/07 01:37:26;;;;;;;;;;;;;;;;;;5087785;28;20371;-84
2021/11/07 01:39:59;;;;;;;;;;;;;;;;;;5084415;28;20016;-83
2021/11/07 01:42:34;;;;;;;;;;;;;;;;;;5073434;28;19905;-81
2021/11/07 01:45:13;;;;;;;;;;;;;;;;;;5088081;28;19904;-81
2021/11/07 01:47:45;;;;;;;;;;;;;;;;;;5060749;28;19914;-79
2021/11/07 01:50:11;;;;;;;;;;;;;;;;;;5069179;28;19965;-82
2021/11/07 01:52:40;;;;;;;;;;;;;;;;;;5087234;28;19908;-82
2021/11/07 01:55:08;;;;;;;;;;;;;;;;;;5069558;28;19908;-82
2021/11/07 01:57:34;;;;;;;;;;;;;;;;;;5069253;28;19925;-81
2021/11/07 02:00:00;;;;;;;;;;;;;;;;;;5075688;28;20386;-81
2021/11/07 02:02:26;;;;;;;;;;;;;;;;;;5088841;28;20336;-82
2021/11/07 02:04:52;;;;;;;;;;;;;;;;;;5070139;28;19904;-83
2021/11/07 02:07:18;;;;;;;;;;;;;;;;;;5087287;28;20371;-83
2021/11/07 02:09:44;;;;;;;;;;;;;;;;;;5070144;28;19904;-84
2021/11/07 02:12:09;;;;;;;;;;;;;;;;;;5069423;28;19907;-82
2021/11/07 02:14:35;;;;;;;;;;;;;;;;;;5068946;28;20394;-81
2021/11/07 02:17:01;;;;;;;;;;;;;;;;;;5072180;28;20387;-83
2021/11/07 02:19:28;;;;;;;;;;;;;;;;;;5060333;28;19920;-83
2021/11/07 02:21:54;;;;;;;;;;;;;;;;;;5060664;28;19919;-81
2021/11/07 02:24:19;;;;;;;;;;;;;;;;;;5069927;28;19903;-80
2021/11/07 02:26:45;;;;;;;;;;;;;;;;;;5068173;28;19916;-82
2021/11/07 02:29:11;;;;;;;;;;;;;;;;;;5069297;28;20394;-82
2021/11/07 02:31:37;;;;;;;;;;;;;;;;;;5068877;28;19991;-81
2021/11/07 02:34:03;;;;;;;;;;;;;;;;;;5074705;28;20366;-81
2021/11/07 02:36:29;;;;;;;;;;;;;;;;;;5076311;28;19908;-81
2021/11/07 02:38:55;;;;;;;;;;;;;;;;;;5068726;28;19936;-81
2021/11/07 02:41:21;;;;;;;;;;;;;;;;;;5069177;28;19991;-80
2021/11/07 02:43:47;;;;;;;;;;;;;;;;;;5069444;28;19911;-80
2021/11/07 02:46:17;;;;;;;;;;;;;;;;;;5068827;28;19908;-82
2021/11/07 02:48:42;;;;;;;;;;;;;;;;;;5069479;28;19907;-81
2021/11/07 02:51:08;;;;;;;;;;;;;;;;;;5066614;28;19923;-82
2021/11/07 02:53:35;;;;;;;;;;;;;;;;;;5069592;28;19954;-82
2021/11/07 02:56:01;;;;;;;;;;;;;;;;;;5086942;28;19907;-81
2021/11/07 02:58:27;;;;;;;;;;;;;;;;;;5068132;28;20008;-80
2021/11/07 03:00:53;;;;;;;;;;;;;;;;;;5088865;28;19969;-84
2021/11/07 03:03:19;;;;;;;;;;;;;;;;;;5072549;28;19908;-83
2021/11/07 03:05:45;;;;;;;;;;;;;;;;;;5072429;28;20451;-82
2021/11/07 03:08:11;;;;;;;;;;;;;;;;;;5090846;28;19969;-82
2021/11/07 03:10:37;;;;;;;;;;;;;;;;;;5058345;28;20007;-86
2021/11/07 03:13:02;;;;;;;;;;;;;;;;;;5068352;28;19908;-83
2021/11/07 03:15:29;;;;;;;;;;;;;;;;;;5072707;28;19904;-82
2021/11/07 03:17:54;;;;;;;;;;;;;;;;;;5072376;28;19915;-82
2021/11/07 03:20:21;;;;;;;;;;;;;;;;;;5072827;28;19915;-83
2021/11/07 03:22:46;;;;;;;;;;;;;;;;;;5069682;28;20356;-84
2021/11/07 03:25:12;;;;;;;;;;;;;;;;;;5091275;28;19999;-83
2021/11/07 03:27:41;;;;;;;;;;;;;;;;;;5071703;28;20309;-82
2021/11/07 03:30:10;;;;;;;;;;;;;;;;;;5073076;28;19912;-82
2021/11/07 03:32:38;;;;;;;;;;;;;;;;;;5071137;28;19958;-82
2021/11/07 03:35:06;;;;;;;;;;;;;;;;;;5090964;28;19911;-82
2021/11/07 03:37:37;;;;;;;;;;;;;;;;;;5072389;28;19915;-81
2021/11/07 03:40:03;;;;;;;;;;;;;;;;;;5072925;28;20367;-81
2021/11/07 03:42:29;;;;;;;;;;;;;;;;;;5077197;28;19908;-81
2021/11/07 03:44:55;;;;;;;;;;;;;;;;;;5091679;28;20348;-82
2021/11/07 03:47:21;;;;;;;;;;;;;;;;;;5090274;28;19915;-81
2021/11/07 03:49:47;;;;;;;;;;;;;;;;;;5072627;28;20533;-80
2021/11/07 03:52:13;;;;;;;;;;;;;;;;;;5069171;28;19908;-81
2021/11/07 03:54:40;;;;;;;;;;;;;;;;;;5090825;28;19937;-80
2021/11/07 03:57:06;;;;;;;;;;;;;;;;;;5071852;28;20139;-81
2021/11/07 03:59:32;;;;;;;;;;;;;;;;;;5072966;28;20383;-81
2021/11/07 04:01:58;;;;;;;;;;;;;;;;;;5070483;28;19959;-81
2021/11/07 04:04:24;;;;;;;;;;;;;;;;;;5073129;28;19904;-80
2021/11/07 04:06:51;;;;;;;;;;;;;;;;;;5072920;28;19954;-81
2021/11/07 04:09:17;;;;;;;;;;;;;;;;;;5071595;28;19908;-83
2021/11/07 04:11:43;;;;;;;;;;;;;;;;;;5064532;28;19920;-81
2021/11/07 04:14:10;;;;;;;;;;;;;;;;;;5087622;28;19912;-81
2021/11/07 04:16:37;;;;;;;;;;;;;;;;;;5073820;28;19916;-81
2021/11/07 04:19:03;;;;;;;;;;;;;;;;;;5089648;28;19916;-81
2021/11/07 04:21:29;;;;;;;;;;;;;;;;;;5064601;28;19912;-81
2021/11/07 04:23:54;;;;;;;;;;;;;;;;;;5066251;28;19934;-81
2021/11/07 04:26:21;;;;;;;;;;;;;;;;;;5071227;28;19943;-80
2021/11/07 04:28:47;;;;;;;;;;;;;;;;;;5071066;28;19908;-81
2021/11/07 04:31:13;;;;;;;;;;;;;;;;;;5070960;28;20436;-80
2021/11/07 04:33:39;;;;;;;;;;;;;;;;;;5069339;28;20003;-82
2021/11/07 04:36:05;;;;;;;;;;;;;;;;;;5079410;28;19931;-81
2021/11/07 04:38:31;;;;;;;;;;;;;;;;;;5070720;28;20041;-81
2021/11/07 04:40:57;;;;;;;;;;;;;;;;;;5070865;28;19911;-80
2021/11/07 04:43:23;;;;;;;;;;;;;;;;;;5089489;28;19908;-80
2021/11/07 04:45:48;;;;;;;;;;;;;;;;;;5071280;28;20104;-80
2021/11/07 04:48:14;;;;;;;;;;;;;;;;;;5067995;28;20468;-81
2021/11/07 04:50:40;;;;;;;;;;;;;;;;;;5082354;28;20203;-81
2021/11/07 04:53:07;;;;;;;;;;;;;;;;;;5086474;28;19912;-82
2021/11/07 04:55:33;;;;;;;;;;;;;;;;;;5076171;28;19954;-83
2021/11/07 04:57:59;;;;;;;;;;;;;;;;;;5072687;28;20613;-81
2021/11/07 05:00:24;;;;;;;;;;;;;;;;;;5075697;28;20037;-81
2021/11/07 05:02:50;;;;;;;;;;;;;;;;;;5075543;28;20540;-81
2021/11/07 05:05:16;;;;;;;;;;;;;;;;;;5093906;28;19919;-81
2021/11/07 05:07:42;;;;;;;;;;;;;;;;;;5093402;28;19967;-81
2021/11/07 05:10:08;;;;;;;;;;;;;;;;;;5076107;28;19912;-81
2021/11/07 05:12:34;;;;;;;;;;;;;;;;;;5075476;28;19999;-82
2021/11/07 05:15:00;;;;;;;;;;;;;;;;;;5075918;28;19904;-80
2021/11/07 05:17:26;;;;;;;;;;;;;;;;;;5073150;28;20287;-80
2021/11/07 05:19:52;;;;;;;;;;;;;;;;;;5070094;28;19916;-79
2021/11/07 05:22:17;;;;;;;;;;;;;;;;;;5067869;28;20310;-79
2021/11/07 05:24:43;;;;;;;;;;;;;;;;;;5080812;28;20209;-79
2021/11/07 05:27:09;;;;;;;;;;;;;;;;;;5076448;28;20351;-80
2021/11/07 05:29:35;;;;;;;;;;;;;;;;;;5088046;28;20285;-80
2021/11/07 05:32:01;;;;;;;;;;;;;;;;;;5070160;28;19911;-80
2021/11/07 05:34:27;;;;;;;;;;;;;;;;;;5087446;28;20316;-79
2021/11/07 05:36:53;;;;;;;;;;;;;;;;;;5066244;28;20280;-80
2021/11/07 05:39:19;;;;;;;;;;;;;;;;;;5085775;28;19908;-79
2021/11/07 05:41:45;;;;;;;;;;;;;;;;;;5081404;28;19904;-80
2021/11/07 05:44:10;;;;;;;;;;;;;;;;;;5087608;28;19939;-79
2021/11/07 05:46:36;;;;;;;;;;;;;;;;;;5069964;28;20306;-79
2021/11/07 05:49:02;;;;;;;;;;;;;;;;;;5065000;28;20372;-79
2021/11/07 05:51:28;;;;;;;;;;;;;;;;;;5067699;28;19908;-80
2021/11/07 05:53:54;;;;;;;;;;;;;;;;;;5069151;28;19912;-79
2021/11/07 05:56:20;;;;;;;;;;;;;;;;;;5069649;28;20360;-79
2021/11/07 05:58:46;;;;;;;;;;;;;;;;;;5069859;28;19912;-79
2021/11/07 06:01:12;;;;;;;;;;;;;;;;;;5069410;28;20364;-79
2021/11/07 06:03:38;;;;;;;;;;;;;;;;;;5087722;28;19931;-79
2021/11/07 06:06:04;;;;;;;;;;;;;;;;;;5069282;28;19915;-79
2021/11/07 06:08:29;;;;;;;;;;;;;;;;;;5068214;28;19908;-79
2021/11/07 06:10:55;;;;;;;;;;;;;;;;;;5049802;28;19904;-79
2021/11/07 06:13:21;;;;;;;;;;;;;;;;;;5068840;28;19918;-79
2021/11/07 06:15:47;;;;;;;;;;;;;;;;;;5087804;28;19904;-79
2021/11/07 06:18:13;;;;;;;;;;;;;;;;;;5067700;28;19951;-79
2021/11/07 06:20:39;;;;;;;;;;;;;;;;;;5069624;28;19907;-79
2021/11/07 06:23:05;;;;;;;;;;;;;;;;;;5066099;28;20407;-79
2021/11/07 06:25:31;;;;;;;;;;;;;;;;;;5087283;28;20347;-79
2021/11/07 06:27:57;;;;;;;;;;;;;;;;;;5067955;28;19961;-79
2021/11/07 06:30:23;;;;;;;;;;;;;;;;;;5087297;28;20422;-78
2021/11/07 06:32:49;;;;;;;;;;;;;;;;;;5081794;28;19914;-79
2021/11/07 06:35:15;;;;;;;;;;;;;;;;;;5071518;28;19914;-79
2021/11/07 06:37:41;;;;;;;;;;;;;;;;;;5086902;28;20003;-78
2021/11/07 06:40:07;;;;;;;;;;;;;;;;;;5069055;28;19922;-79
2021/11/07 06:42:33;;;;;;;;;;;;;;;;;;5069934;28;19903;-79
2021/11/07 06:44:59;;;;;;;;;;;;;;;;;;5069122;28;20002;-79
2021/11/07 06:47:25;;;;;;;;;;;;;;;;;;5087982;28;19908;-78
2021/11/07 06:49:51;;;;;;;;;;;;;;;;;;5068292;28;19915;-78
2021/11/07 06:52:17;;;;;;;;;;;;;;;;;;5085349;28;19904;-79
2021/11/07 06:54:43;;;;;;;;;;;;;;;;;;5068047;28;19931;-78
2021/11/07 06:57:09;;;;;;;;;;;;;;;;;;5087526;28;20019;-78
2021/11/07 06:59:34;;;;;;;;;;;;;;;;;;5060711;28;19908;-78
2021/11/07 07:02:00;;;;;;;;;;;;;;;;;;5066434;28;19905;-78
2021/11/07 07:04:26;;;;;;;;;;;;;;;;;;5072362;28;19912;-78
2021/11/07 07:06:52;;;;;;;;;;;;;;;;;;5068893;28;19912;-78
2021/11/07 07:09:25;;;;;;;;;;;;;;;;;;5064367;28;20339;-78
2021/11/07 07:12:01;;;;;;;;;;;;;;;;;;5067844;28;19991;-78
2021/11/07 07:14:31;;;;;;;;;;;;;;;;;;5085277;28;19969;-79
2021/11/07 07:29:59;;;;;;;;;;;;;;;;;;5086717;28;19912;-77
2021/11/07 07:35:02;;;;;;;;;;;;;;;;;;5087000;28;19944;-79
2021/11/07 07:37:28;;;;;;;;;;;;;;;;;;5087403;28;20006;-79
2021/11/07 07:39:55;;;;;;;;;;;;;;;;;;5069890;28;19999;-79
2021/11/07 07:42:20;;;;;;;;;;;;;;;;;;5087185;28;20267;-79
2021/11/07 07:44:50;;;;;;;;;;;;;;;;;;5086360;28;19999;-79
2021/11/07 07:47:16;;;;;;;;;;;;;;;;;;5089329;28;19908;-81
2021/11/07 07:49:42;;;;;;;;;;;;;;;;;;5074933;28;19931;-79
2021/11/07 07:52:08;;;;;;;;;;;;;;;;;;5088911;28;19943;-79
2021/11/07 07:54:34;;;;;;;;;;;;;;;;;;5090335;28;19912;-79
2021/11/07 07:57:00;;;;;;;;;;;;;;;;;;5098710;28;19916;-79
2021/11/07 07:59:26;;;;;;;;;;;;;;;;;;5089418;28;20316;-79
2021/11/07 08:01:52;;;;;;;;;;;;;;;;;;5089173;28;19961;-79
2021/11/07 08:04:18;;;;;;;;;;;;;;;;;;5090454;28;20387;-78
2021/11/07 08:06:44;;;;;;;;;;;;;;;;;;5072347;28;19915;-78
2021/11/07 08:09:09;;;;;;;;;;;;;;;;;;5090768;28;20287;-78
2021/11/07 08:11:36;;;;;;;;;;;;;;;;;;5072734;28;20307;-78
2021/11/07 08:14:02;;;;;;;;;;;;;;;;;;5073217;28;19914;-78
2021/11/07 08:16:28;;;;;;;;;;;;;;;;;;5072079;28;19987;-78
2021/11/07 08:18:54;;;;;;;;;;;;;;;;;;5090483;28;19916;-79
2021/11/07 08:21:20;;;;;;;;;;;;;;;;;;5088970;28;19908;-78
2021/11/07 08:23:48;;;;;;;;;;;;;;;;;;5089869;28;19912;-78
2021/11/07 08:26:15;;;;;;;;;;;;;;;;;;5090820;28;19915;-78
2021/11/07 08:28:41;;;;;;;;;;;;;;;;;;5071776;28;20194;-78
2021/11/07 08:31:08;;;;;;;;;;;;;;;;;;5072660;28;20621;-77
2021/11/07 08:33:34;;;;;;;;;;;;;;;;;;5091008;28;19912;-77
2021/11/07 08:36:24;;;;;;;;;;;;;;;;;;5072244;28;19911;-77
2021/11/07 08:38:58;;;;;;;;;;;;;;;;;;5073688;28;19916;-77
2021/11/07 08:41:24;;;;;;;;;;;;;;;;;;5072513;28;19958;-77
2021/11/07 09:00:18;;;;;;;;;;;;;;;;;;5086614;28;20245;-78
2021/11/07 09:05:19;;;;;;;;;;;;;;;;;;5085237;28;20394;-77
2021/11/07 09:08:19;;;;;;;;;;;;;;;;;;5085654;28;19939;-77
2021/11/07 09:10:37;;;;;;;;;;;;;;;;;;5087759;28;20235;-77
2021/11/07 09:13:03;;;;;;;;;;;;;;;;;;5073115;28;20308;-79
2021/11/07 09:15:29;;;;;;;;;;;;;;;;;;5091123;28;19904;-78
2021/11/07 09:17:55;;;;;;;;;;;;;;;;;;5091257;28;20297;-78
2021/11/07 09:20:25;;;;;;;;;;;;;;;;;;5072877;28;19919;-77
2021/11/07 09:22:59;;;;;;;;;;;;;;;;;;5083478;28;19947;-78
2021/11/07 09:25:29;;;;;;;;;;;;;;;;;;5089642;28;19907;-78
2021/11/07 09:28:03;;;;;;;;;;;;;;;;;;5056833;28;19999;-79
2021/11/07 09:30:46;;;;;;;;;;;;;;;;;;5052715;28;19904;-78
2021/11/07 09:33:17;;;;;;;;;;;;;;;;;;5061969;28;20459;-78
2021/11/07 09:35:57;;;;;;;;;;;;;;;;;;5090931;28;19912;-78
2021/11/07 09:38:28;;;;;;;;;;;;;;;;;;5072752;28;20337;-77
2021/11/07 09:41:10;;;;;;;;;;;;;;;;;;5089907;28;19994;-78
2021/11/07 09:43:41;;;;;;;;;;;;;;;;;;5079838;28;19907;-77
2021/11/07 09:46:18;;;;;;;;;;;;;;;;;;5072211;28;20203;-78
2021/11/07 09:48:51;;;;;;;;;;;;;;;;;;5072621;28;20002;-77
2021/11/07 09:51:19;;;;;;;;;;;;;;;;;;5070687;28;20481;-78
2021/11/07 09:53:46;;;;;;;;;;;;;;;;;;5090366;28;19912;-77
2021/11/07 09:56:12;;;;;;;;;;;;;;;;;;5070895;28;20423;-78
2021/11/07 09:58:40;;;;;;;;;;;;;;;;;;5071697;28;19908;-79
2021/11/07 10:01:06;;;;;;;;;;;;;;;;;;5072318;28;19904;-78
2021/11/07 10:03:34;;;;;;;;;;;;;;;;;;5090334;28;20360;-77
2021/11/07 10:06:01;;;;;;;;;;;;;;;;;;5072156;28;19908;-79
2021/11/07 10:08:27;;;;;;;;;;;;;;;;;;5089979;28;19908;-78
2021/11/07 10:11:01;;;;;;;;;;;;;;;;;;5068010;28;19928;-78
2021/11/07 10:13:27;;;;;;;;;;;;;;;;;;5064467;28;19911;-78
2021/11/07 10:15:56;;;;;;;;;;;;;;;;;;5096160;28;20045;-79
2021/11/07 10:18:25;;;;;;;;;;;;;;;;;;5083631;28;19912;-83
2021/11/07 10:20:57;;;;;;;;;;;;;;;;;;5070406;28;19908;-83
2021/11/07 10:23:29;;;;;;;;;;;;;;;;;;5087404;28;19908;-82
2021/11/07 10:26:19;;;;;;;;;;;;;;;;;;5069323;28;19908;-82
2021/11/07 10:31:24;;;;;;;;;;;;;;;;;;5087970;28;19905;-81
2021/11/07 10:39:29;;;;;;;;;;;;;;;;;;5087632;28;19919;-83
2021/11/07 10:45:05;;;;;;;;;;;;;;;;;;5087348;28;20147;-83
2021/11/07 10:52:38;;;;;;;;;;;;;;;;;;5084488;28;19919;-82
2021/11/07 10:55:04;;;;;;;;;;;;;;;;;;5067687;28;19908;-82
2021/11/07 10:57:30;;;;;;;;;;;;;;;;;;5068338;28;19912;-82
2021/11/07 10:59:56;;;;;;;;;;;;;;;;;;5068020;28;20380;-84
2021/11/07 11:02:22;;;;;;;;;;;;;;;;;;5068069;28;19911;-83
2021/11/07 11:04:48;;;;;;;;;;;;;;;;;;5081620;28;20487;-82
2021/11/07 11:07:14;;;;;;;;;;;;;;;;;;5084737;28;19912;-82
2021/11/07 11:09:46;;;;;;;;;;;;;;;;;;5066597;28;19912;-83
2021/11/07 11:12:16;;;;;;;;;;;;;;;;;;5066852;28;19965;-82
2021/11/07 11:14:43;;;;;;;;;;;;;;;;;;5068476;28;19908;-81
2021/11/07 11:17:36;;;;;;;;;;;;;;;;;;5066286;28;19916;-81
2021/11/07 11:20:15;;;;;;;;;;;;;;;;;;5087043;28;19916;-80
2021/11/07 11:38:23;;;;;;;;;;;;;;;;;;5089698;28;19969;-87
2021/11/07 11:43:45;;;;;;;;;;;;;;;;;;5090602;28;19910;-84
2021/11/07 11:46:17;;;;;;;;;;;;;;;;;;5090484;28;20259;-81
2021/11/07 11:49:04;;;;;;;;;;;;;;;;;;5072129;28;19904;-83
2021/11/07 11:51:54;;;;;;;;;;;;;;;;;;5088455;28;20291;-81
2021/11/07 11:56:53;;;;;;;;;;;;;;;;;;5090453;28;19953;-80
2021/11/07 11:59:19;;;;;;;;;;;;;;;;;;5072163;28;19998;-80
2021/11/07 12:01:50;;;;;;;;;;;;;;;;;;5091088;28;20344;-81
2021/11/07 12:04:25;;;;;;;;;;;;;;;;;;5072467;28;19912;-80
2021/11/07 12:06:53;;;;;;;;;;;;;;;;;;5072539;28;19904;-82
2021/11/07 12:09:24;;;;;;;;;;;;;;;;;;5072388;28;19953;-80
2021/11/07 12:14:49;;;;;;;;;;;;;;;;;;5081366;28;19904;-81
2021/11/07 12:17:18;;;;;;;;;;;;;;;;;;5089525;28;19912;-82
2021/11/07 12:19:44;;;;;;;;;;;;;;;;;;5089016;28;19920;-80
2021/11/07 12:22:10;;;;;;;;;;;;;;;;;;5087997;28;20032;-80
2021/11/07 12:24:36;;;;;;;;;;;;;;;;;;5089181;28;19958;-82
2021/11/07 12:27:02;;;;;;;;;;;;;;;;;;5079319;28;20005;-81
2021/11/07 12:29:28;;;;;;;;;;;;;;;;;;5083377;28;20195;-81
2021/11/07 12:31:54;;;;;;;;;;;;;;;;;;5089036;28;20363;-82
2021/11/07 12:34:21;;;;;;;;;;;;;;;;;;5088651;28;19908;-80
2021/11/07 12:42:18;;;;;;;;;;;;;;;;;;5090744;28;19912;-80
2021/11/07 12:44:50;;;;;;;;;;;;;;;;;;5090731;28;19904;-83
2021/11/07 12:47:17;;;;;;;;;;;;;;;;;;5088503;28;19991;-80
2021/11/07 12:49:47;;;;;;;;;;;;;;;;;;5072013;28;19904;-81
2021/11/07 12:52:16;;;;;;;;;;;;;;;;;;5070435;28;20318;-79
2021/11/07 12:54:42;;;;;;;;;;;;;;;;;;5071916;28;19908;-82
2021/11/07 12:57:07;;;;;;;;;;;;;;;;;;5071554;28;19915;-79
2021/11/07 12:59:33;;;;;;;;;;;;;;;;;;5071575;28;20068;-81
2021/11/07 13:02:01;;;;;;;;;;;;;;;;;;5071891;28;19922;-83
2021/11/07 13:04:27;;;;;;;;;;;;;;;;;;5090506;28;19918;-81
2021/11/07 13:06:55;;;;;;;;;;;;;;;;;;5089743;28;19961;-79
2021/11/07 13:09:26;;;;;;;;;;;;;;;;;;5071988;28;20033;-78
2021/11/07 13:11:55;;;;;;;;;;;;;;;;;;5071246;28;20451;-79
2021/11/07 13:14:36;;;;;;;;;;;;;;;;;;5072255;28;19911;-81
2021/11/07 13:17:22;;;;;;;;;;;;;;;;;;5056512;28;20319;-80
2021/11/07 13:20:11;;;;;;;;;;;;;;;;;;5062759;28;19916;-77
2021/11/07 13:23:04;;;;;;;;;;;;;;;;;;5088005;28;19923;-81
2021/11/07 13:25:46;;;;;;;;;;;;;;;;;;5088145;28;19990;-80
2021/11/07 13:28:22;;;;;;;;;;;;;;;;;;5089765;28;19910;-78
2021/11/07 13:30:47;;;;;;;;;;;;;;;;;;5090601;28;19904;-82
2021/11/07 13:33:13;;;;;;;;;;;;;;;;;;5090039;28;19911;-85
2021/11/07 13:35:39;;;;;;;;;;;;;;;;;;5071298;28;19991;-82
2021/11/07 13:38:08;;;;;;;;;;;;;;;;;;5085947;28;20351;-83
2021/11/07 13:40:36;;;;;;;;;;;;;;;;;;5089215;28;19959;-78
2021/11/07 13:43:02;;;;;;;;;;;;;;;;;;5071526;28;20410;-80
2021/11/07 13:45:28;;;;;;;;;;;;;;;;;;5088724;28;19912;-77
2021/11/07 13:47:54;;;;;;;;;;;;;;;;;;5089190;28;19907;-80
2021/11/07 13:50:20;;;;;;;;;;;;;;;;;;5070710;28;20408;-78
2021/11/07 13:52:46;;;;;;;;;;;;;;;;;;5087886;28;19915;-80
2021/11/07 13:55:12;;;;;;;;;;;;;;;;;;5083604;28;19904;-80
2021/11/07 13:57:38;;;;;;;;;;;;;;;;;;5070535;28;19915;-79
2021/11/07 14:00:04;;;;;;;;;;;;;;;;;;5070412;28;20439;-82
2021/11/07 14:02:29;;;;;;;;;;;;;;;;;;5068566;28;19954;-81
2021/11/07 14:04:55;;;;;;;;;;;;;;;;;;5069672;28;19951;-85
2021/11/07 14:07:21;;;;;;;;;;;;;;;;;;5070440;28;20298;-79
2021/11/07 14:09:47;;;;;;;;;;;;;;;;;;5070054;28;20275;-80
2021/11/07 14:12:13;;;;;;;;;;;;;;;;;;5077107;28;19911;-78
2021/11/07 14:14:39;;;;;;;;;;;;;;;;;;5070532;28;19912;-79
2021/11/07 14:17:05;;;;;;;;;;;;;;;;;;5067870;28;20129;-80
2021/11/07 14:19:31;;;;;;;;;;;;;;;;;;5086660;28;20056;-79
2021/11/07 14:22:02;;;;;;;;;;;;;;;;;;5068530;28;20006;-79
2021/11/07 14:24:29;;;;;;;;;;;;;;;;;;5069791;28;20050;-84
2021/11/07 14:27:01;;;;;;;;;;;;;;;;;;5068505;28;19908;-82
2021/11/07 14:29:42;;;;;;;;;;;;;;;;;;5080162;28;20394;-81
2021/11/07 14:32:22;;;;;;;;;;;;;;;;;;5069742;28;19904;-80
2021/11/07 14:40:00;;;;;;;;;;;;;;;;;;5082143;28;19951;-78
2021/11/07 14:42:52;;;;;;;;;;;;;;;;;;5069111;28;20397;-80
2021/11/07 14:53:16;;;;;;;;;;;;;;;;;;5086581;28;19904;-81
2021/11/07 14:55:47;;;;;;;;;;;;;;;;;;5069734;28;19908;-81
2021/11/07 14:58:20;;;;;;;;;;;;;;;;;;5076898;28;20009;-81
2021/11/07 15:00:59;;;;;;;;;;;;;;;;;;5070105;28;19999;-81
2021/11/07 15:03:32;;;;;;;;;;;;;;;;;;5061347;28;20565;-81
2021/11/07 15:06:05;;;;;;;;;;;;;;;;;;5069611;28;20349;-80
2021/11/07 15:08:36;;;;;;;;;;;;;;;;;;5087891;28;20471;-80
2021/11/07 15:16:25;;;;;;;;;;;;;;;;;;5087632;28;20007;-80
2021/11/07 15:23:52;;;;;;;;;;;;;;;;;;5092041;28;19908;-80
2021/11/07 15:29:11;;;;;;;;;;;;;;;;;;5082694;28;19937;-78
2021/11/07 15:31:37;;;;;;;;;;;;;;;;;;5068714;28;20287;-80
2021/11/07 15:34:03;;;;;;;;;;;;;;;;;;5068902;28;19915;-80
2021/11/07 15:36:30;;;;;;;;;;;;;;;;;;5070040;28;19904;-79
2021/11/07 15:38:56;;;;;;;;;;;;;;;;;;5069056;28;19942;-79
2021/11/07 15:41:21;;;;;;;;;;;;;;;;;;5068875;28;19916;-79
2021/11/07 15:43:48;;;;;;;;;;;;;;;;;;5088091;28;20299;-78
2021/11/07 15:46:16;;;;;;;;;;;;;;;;;;5069567;28;19911;-78
2021/11/07 15:48:45;;;;;;;;;;;;;;;;;;5069570;28;19935;-82
2021/11/07 15:54:29;;;;;;;;;;;;;;;;;;5082354;28;19950;-81
2021/11/07 15:59:22;;;;;;;;;;;;;;;;;;5087948;28;19912;-79
2021/11/07 16:07:21;;;;;;;;;;;;;;;;;;5070184;28;19912;-78
2021/11/07 16:12:36;;;;;;;;;;;;;;;;;;5091180;28;19904;-80
2021/11/07 16:17:33;;;;;;;;;;;;;;;;;;5090602;28;19908;-80
2021/11/07 16:20:01;;;;;;;;;;;;;;;;;;5060759;28;19973;-79
2021/11/07 16:22:27;;;;;;;;;;;;;;;;;;5058194;28;19947;-78
2021/11/07 16:24:53;;;;;;;;;;;;;;;;;;5071446;28;19904;-81
2021/11/07 16:27:24;;;;;;;;;;;;;;;;;;5068880;28;20019;-78
2021/11/07 16:29:50;;;;;;;;;;;;;;;;;;5085314;28;19987;-79
2021/11/07 16:32:21;;;;;;;;;;;;;;;;;;5066393;28;19995;-79
2021/11/07 16:34:54;;;;;;;;;;;;;;;;;;5074378;28;19916;-77
2021/11/07 16:37:23;;;;;;;;;;;;;;;;;;5068574;28;19912;-76
2021/11/07 16:42:36;;;;;;;;;;;;;;;;;;5085617;28;20323;-78
2021/11/07 16:45:02;;;;;;;;;;;;;;;;;;5086092;28;19907;-77
2021/11/07 16:47:32;;;;;;;;;;;;;;;;;;5088876;28;19914;-78
2021/11/07 16:50:00;;;;;;;;;;;;;;;;;;5085494;28;19918;-78
2021/11/07 16:52:29;;;;;;;;;;;;;;;;;;5053766;28;20285;-79
2021/11/07 16:54:58;;;;;;;;;;;;;;;;;;5064548;28;19951;-79
2021/11/07 16:57:26;;;;;;;;;;;;;;;;;;5086747;28;19963;-77
2021/11/07 17:00:08;;;;;;;;;;;;;;;;;;5076292;28;19911;-77
2021/11/07 17:02:40;;;;;;;;;;;;;;;;;;5065898;28;19955;-80
2021/11/07 17:05:14;;;;;;;;;;;;;;;;;;5089373;28;19998;-77
2021/11/07 17:10:07;;;;;;;;;;;;;;;;;;5090064;28;19912;-77
2021/11/07 17:12:36;;;;;;;;;;;;;;;;;;5072700;28;20403;-77
2021/11/07 17:15:09;;;;;;;;;;;;;;;;;;5071420;28;19915;-78
2021/11/07 17:17:49;;;;;;;;;;;;;;;;;;5072174;28;19961;-79
2021/11/07 17:20:44;;;;;;;;;;;;;;;;;;5070890;28;20011;-77
2021/11/07 17:25:54;;;;;;;;;;;;;;;;;;5042676;28;19904;-77
2021/11/07 17:28:25;;;;;;;;;;;;;;;;;;5088292;28;19916;-78
2021/11/07 17:30:57;;;;;;;;;;;;;;;;;;5071856;28;20411;-77
2021/11/07 17:41:25;;;;;;;;;;;;;;;;;;5090565;28;19999;-77
2021/11/07 17:49:34;;;;;;;;;;;;;;;;;;5089763;28;20291;-77
2021/11/07 17:57:12;;;;;;;;;;;;;;;;;;5089229;28;19916;-78
2021/11/07 17:59:38;;;;;;;;;;;;;;;;;;5089648;28;20275;-78
2021/11/07 18:02:06;;;;;;;;;;;;;;;;;;5070669;28;19908;-77
2021/11/07 18:04:31;;;;;;;;;;;;;;;;;;5071652;28;20328;-77
2021/11/07 18:07:10;;;;;;;;;;;;;;;;;;5088337;28;19912;-77
2021/11/07 18:09:44;;;;;;;;;;;;;;;;;;5081800;28;19958;-76
2021/11/07 18:12:15;;;;;;;;;;;;;;;;;;5072473;28;20388;-77
2021/11/07 18:14:42;;;;;;;;;;;;;;;;;;5089564;28;19911;-76
2021/11/07 18:17:08;;;;;;;;;;;;;;;;;;5062447;28;20372;-76
2021/11/07 18:19:34;;;;;;;;;;;;;;;;;;5056388;28;19917;-77
2021/11/07 18:22:05;;;;;;;;;;;;;;;;;;5045017;28;20412;-77
2021/11/07 18:24:35;;;;;;;;;;;;;;;;;;5045001;28;19908;-76
2021/11/07 18:27:09;;;;;;;;;;;;;;;;;;5047699;28;19953;-77
2021/11/07 18:29:35;;;;;;;;;;;;;;;;;;5047770;28;19908;-76
2021/11/07 18:32:02;;;;;;;;;;;;;;;;;;5043233;28;19909;-77
2021/11/07 18:34:28;;;;;;;;;;;;;;;;;;5036818;28;20357;-77
2021/11/07 18:36:54;;;;;;;;;;;;;;;;;;5047821;28;19912;-76
2021/11/07 18:39:21;;;;;;;;;;;;;;;;;;5047682;28;20346;-77
2021/11/07 18:41:47;;;;;;;;;;;;;;;;;;5046750;28;19970;-76
2021/11/07 18:44:13;;;;;;;;;;;;;;;;;;5044740;28;19905;-78
2021/11/07 18:46:39;;;;;;;;;;;;;;;;;;5048419;28;20003;-77
2021/11/07 18:49:05;;;;;;;;;;;;;;;;;;5048792;28;19914;-77
2021/11/07 18:51:31;;;;;;;;;;;;;;;;;;5047117;28;20366;-78
2021/11/07 18:53:57;;;;;;;;;;;;;;;;;;5046284;28;20007;-77
2021/11/07 18:56:23;;;;;;;;;;;;;;;;;;5045578;28;20310;-76
2021/11/07 18:58:49;;;;;;;;;;;;;;;;;;5032229;28;20347;-77
2021/11/07 19:01:15;;;;;;;;;;;;;;;;;;5046002;28;19966;-76
2021/11/07 19:03:41;;;;;;;;;;;;;;;;;;5029222;28;19916;-77
2021/11/07 19:06:07;;;;;;;;;;;;;;;;;;5040329;28;19909;-76
2021/11/07 19:08:33;;;;;;;;;;;;;;;;;;5046908;28;19931;-77
2021/11/07 19:10:59;;;;;;;;;;;;;;;;;;5047587;28;19909;-77
2021/11/07 19:13:25;;;;;;;;;;;;;;;;;;5048368;28;19912;-76
2021/11/07 19:15:51;;;;;;;;;;;;;;;;;;5045294;28;19908;-76
2021/11/07 19:18:16;;;;;;;;;;;;;;;;;;5060021;28;19917;-77
2021/11/07 19:20:42;;;;;;;;;;;;;;;;;;5047674;28;20280;-77
2021/11/07 19:23:08;;;;;;;;;;;;;;;;;;5045870;28;19956;-78
2021/11/07 19:25:35;;;;;;;;;;;;;;;;;;5047392;28;20364;-76
2021/11/07 19:28:00;;;;;;;;;;;;;;;;;;5047260;28;20125;-76
2021/11/07 19:30:26;;;;;;;;;;;;;;;;;;5047737;28;19915;-77
2021/11/07 19:32:53;;;;;;;;;;;;;;;;;;5046951;28;20136;-77
2021/11/07 19:35:19;;;;;;;;;;;;;;;;;;5047303;28;19916;-77
2021/11/07 19:37:45;;;;;;;;;;;;;;;;;;5048259;28;19916;-76
2021/11/07 19:40:11;;;;;;;;;;;;;;;;;;5047834;28;19912;-76
2021/11/07 19:42:37;;;;;;;;;;;;;;;;;;5040951;28;20340;-77